Time;durP1;ratioP1;P1;durP2;ratioP2;P2;SDS_P1;SDS_P2;PMS_P1;PMS_P2;Temp;Humidity;BMP_temperature;BMP_pressure;BME280_temperature;BME280_humidity;BME280_pressure;Samples;Min_cycle;Max_cycle;Signal;HPM_P1;HPM_P2
2021/08/18 00:00:35;;;;;;;21.25;17.98;;;16.60;99.90;;;;;;5107361;28;20174;-67
2021/08/18 00:03:02;;;;;;;25.70;17.55;;;16.60;99.90;;;;;;5107313;28;20161;-67
2021/08/18 00:05:28;;;;;;;29.52;19.33;;;16.70;99.90;;;;;;5107046;28;20269;-67
2021/08/18 00:07:54;;;;;;;29.67;19.67;;;16.80;99.90;;;;;;5104234;28;20211;-67
2021/08/18 00:10:19;;;;;;;26.70;19.10;;;16.90;99.90;;;;;;5123195;28;20163;-67
2021/08/18 00:12:45;;;;;;;27.80;18.48;;;16.90;99.90;;;;;;5106542;28;20556;-67
2021/08/18 00:15:14;;;;;;;30.15;19.20;;;16.70;99.90;;;;;;5123054;28;20171;-67
2021/08/18 00:17:40;;;;;;;26.90;18.73;;;16.70;99.90;;;;;;5104997;28;20170;-68
2021/08/18 00:20:06;;;;;;;23.40;19.60;;;16.70;99.90;;;;;;5106269;28;20160;-67
2021/08/18 00:22:32;;;;;;;30.33;19.67;;;16.60;99.90;;;;;;5106694;28;20167;-68
2021/08/18 00:24:57;;;;;;;25.95;18.30;;;16.60;99.90;;;;;;5139713;27;20201;-67
2021/08/18 00:27:23;;;;;;;24.40;18.77;;;16.70;99.90;;;;;;5106475;28;20164;-68
2021/08/18 00:29:49;;;;;;;25.17;19.38;;;16.70;99.90;;;;;;5104628;28;20163;-67
2021/08/18 00:32:14;;;;;;;30.23;20.08;;;16.70;99.90;;;;;;5122617;28;20221;-67
2021/08/18 00:34:40;;;;;;;24.80;18.67;;;16.80;99.90;;;;;;5122092;28;20191;-67
2021/08/18 00:37:06;;;;;;;26.70;20.20;;;16.70;99.90;;;;;;5122158;28;20167;-68
2021/08/18 00:39:32;;;;;;;30.00;19.80;;;16.70;99.90;;;;;;5103467;28;20172;-67
2021/08/18 00:41:58;;;;;;;27.38;20.05;;;16.70;99.90;;;;;;5106184;28;20182;-68
2021/08/18 00:44:24;;;;;;;31.35;20.48;;;16.70;99.90;;;;;;5106267;28;20159;-67
2021/08/18 00:46:53;;;;;;;23.52;19.13;;;16.70;99.90;;;;;;5106586;28;20162;-67
2021/08/18 00:49:20;;;;;;;26.60;19.98;;;16.60;99.90;;;;;;5103817;28;20179;-68
2021/08/18 00:51:50;;;;;;;28.40;19.60;;;16.70;99.90;;;;;;5106484;28;20223;-67
2021/08/18 00:54:17;;;;;;;32.08;21.17;;;16.70;99.90;;;;;;5106253;28;20197;-67
2021/08/18 00:56:44;;;;;;;35.63;20.17;;;16.60;99.90;;;;;;5106106;28;20234;-68
2021/08/18 00:59:10;;;;;;;34.15;19.98;;;16.60;99.90;;;;;;5102928;28;20168;-68
2021/08/18 01:01:37;;;;;;;22.60;19.05;;;16.50;99.90;;;;;;5105694;28;20155;-68
2021/08/18 01:04:03;;;;;;;27.27;19.77;;;16.50;99.90;;;;;;5139176;27;20653;-68
2021/08/18 01:06:29;;;;;;;27.58;20.27;;;16.50;99.90;;;;;;5106243;28;20163;-68
2021/08/18 01:08:55;;;;;;;33.90;21.25;;;16.70;99.90;;;;;;5103316;28;20225;-68
2021/08/18 01:11:21;;;;;;;31.33;21.63;;;16.70;99.90;;;;;;5138567;27;20316;-68
2021/08/18 01:13:47;;;;;;;31.13;20.10;;;16.80;99.90;;;;;;5121655;28;20805;-68
2021/08/18 01:16:13;;;;;;;25.25;20.88;;;16.80;99.90;;;;;;5106132;28;20167;-68
2021/08/18 01:18:39;;;;;;;31.73;20.05;;;16.80;99.90;;;;;;5103071;28;20159;-67
2021/08/18 01:21:05;;;;;;;31.27;20.73;;;16.70;99.90;;;;;;5138878;27;20195;-67
2021/08/18 01:23:31;;;;;;;28.48;20.75;;;16.70;99.90;;;;;;5105977;28;20178;-68
2021/08/18 01:25:57;;;;;;;27.73;20.63;;;16.70;99.90;;;;;;5121462;28;20250;-67
2021/08/18 01:28:27;;;;;;;26.30;21.00;;;16.90;99.90;;;;;;5103231;28;20245;-68
2021/08/18 01:30:53;;;;;;;28.90;22.17;;;16.80;99.90;;;;;;5106155;28;20193;-68
2021/08/18 01:33:19;;;;;;;27.85;21.70;;;16.70;99.90;;;;;;5138481;28;20183;-67
2021/08/18 01:35:49;;;;;;;28.90;21.27;;;16.70;99.90;;;;;;5106061;28;20156;-67
2021/08/18 01:38:17;;;;;;;29.52;22.17;;;16.80;99.90;;;;;;5103024;28;20570;-68
2021/08/18 01:40:44;;;;;;;26.45;21.05;;;16.90;99.90;;;;;;5105545;28;20181;-67
2021/08/18 01:43:11;;;;;;;31.23;21.52;;;16.80;99.90;;;;;;5105951;28;20250;-68
2021/08/18 01:45:39;;;;;;;31.52;22.25;;;16.70;99.90;;;;;;5138637;28;20167;-68
2021/08/18 01:48:10;;;;;;;32.05;22.45;;;16.70;99.90;;;;;;5103053;28;20687;-68
2021/08/18 01:50:37;;;;;;;31.77;23.02;;;16.60;99.90;;;;;;5105787;28;20167;-67
2021/08/18 01:53:03;;;;;;;35.53;23.35;;;16.60;99.90;;;;;;5105760;28;20265;-68
2021/08/18 01:55:28;;;;;;;39.85;25.40;;;16.70;99.90;;;;;;5105633;28;20160;-68
2021/08/18 01:57:55;;;;;;;38.42;24.85;;;16.60;99.90;;;;;;5102836;28;20163;-67
2021/08/18 02:00:21;;;;;;;37.15;25.42;;;16.70;99.90;;;;;;5105719;28;20171;-68
2021/08/18 02:02:47;;;;;;;40.80;26.42;;;16.50;99.90;;;;;;5105814;28;20166;-68
2021/08/18 02:05:13;;;;;;;37.95;26.35;;;16.60;99.90;;;;;;5105783;28;20203;-67
2021/08/18 02:07:39;;;;;;;36.28;25.80;;;16.70;99.90;;;;;;5103491;28;20215;-68
2021/08/18 02:10:08;;;;;;;42.50;27.15;;;16.70;99.90;;;;;;5107059;28;20216;-67
2021/08/18 02:12:35;;;;;;;42.03;26.95;;;16.70;99.90;;;;;;5109144;28;20224;-68
2021/08/18 02:15:01;;;;;;;43.10;29.02;;;16.70;99.90;;;;;;5109560;28;20171;-67
2021/08/18 02:17:27;;;;;;;45.53;29.30;;;16.80;99.90;;;;;;5108989;28;20160;-67
2021/08/18 02:19:52;;;;;;;47.90;29.63;;;16.90;99.90;;;;;;5107206;28;20184;-67
2021/08/18 02:22:18;;;;;;;47.90;30.08;;;16.90;99.90;;;;;;5109625;28;20520;-67
2021/08/18 02:24:44;;;;;;;47.30;29.58;;;17.00;99.90;;;;;;5109155;28;20160;-68
2021/08/18 02:27:09;;;;;;;44.75;29.10;;;16.80;99.90;;;;;;5108977;28;20177;-67
2021/08/18 02:29:35;;;;;;;48.58;29.98;;;16.80;99.90;;;;;;5106170;28;20186;-67
2021/08/18 02:32:01;;;;;;;41.38;28.42;;;16.80;99.90;;;;;;5109258;28;20189;-67
2021/08/18 02:34:26;;;;;;;52.92;30.95;;;16.70;99.90;;;;;;5109015;28;20191;-67
2021/08/18 02:36:52;;;;;;;49.65;29.88;;;16.90;99.90;;;;;;5109276;28;20161;-67
2021/08/18 02:39:17;;;;;;;42.60;30.73;;;17.00;99.90;;;;;;5106201;28;20174;-67
2021/08/18 02:41:43;;;;;;;56.08;30.45;;;17.00;99.90;;;;;;5124391;28;20217;-68
2021/08/18 02:44:09;;;;;;;50.15;29.83;;;16.90;99.90;;;;;;5124851;28;20182;-68
2021/08/18 02:46:34;;;;;;;45.05;29.83;;;16.90;99.90;;;;;;5108685;28;20159;-68
2021/08/18 02:49:00;;;;;;;47.40;30.42;;;16.70;99.90;;;;;;5106069;28;20167;-67
2021/08/18 02:51:25;;;;;;;46.15;29.92;;;16.90;99.90;;;;;;5108728;28;20164;-67
2021/08/18 02:53:51;;;;;;;45.33;30.80;;;16.90;99.90;;;;;;5108781;28;20184;-67
2021/08/18 02:56:17;;;;;;;60.75;30.70;;;16.70;99.90;;;;;;5108578;28;20171;-67
2021/08/18 02:58:43;;;;;;;55.33;30.38;;;16.70;99.90;;;;;;5105886;28;20224;-67
2021/08/18 03:01:08;;;;;;;49.10;30.08;;;16.90;99.90;;;;;;5108630;28;20164;-67
2021/08/18 03:03:34;;;;;;;44.72;29.83;;;17.00;99.90;;;;;;5124174;28;20209;-67
2021/08/18 03:05:59;;;;;;;49.38;29.23;;;17.00;99.90;;;;;;5108709;28;20637;-67
2021/08/18 03:08:25;;;;;;;45.97;28.92;;;16.90;99.90;;;;;;5105409;28;20732;-67
2021/08/18 03:10:51;;;;;;;44.40;28.17;;;16.80;99.90;;;;;;5123982;28;20231;-67
2021/08/18 03:13:16;;;;;;;46.75;29.40;;;16.80;99.90;;;;;;5108442;28;20246;-67
2021/08/18 03:15:42;;;;;;;47.83;28.55;;;16.90;99.90;;;;;;5108233;28;20403;-67
2021/08/18 03:18:08;;;;;;;46.10;29.52;;;16.90;99.90;;;;;;5105667;28;20152;-68
2021/08/18 03:20:33;;;;;;;44.80;29.27;;;16.80;99.90;;;;;;5107273;28;20197;-67
2021/08/18 03:22:59;;;;;;;47.17;29.63;;;16.90;99.90;;;;;;5123821;28;20534;-67
2021/08/18 03:25:24;;;;;;;51.72;28.70;;;16.80;99.90;;;;;;5108070;28;20159;-67
2021/08/18 03:27:50;;;;;;;47.10;28.90;;;16.90;99.90;;;;;;5105460;28;20267;-67
2021/08/18 03:30:16;;;;;;;42.55;30.10;;;16.90;99.90;;;;;;5107938;28;20175;-68
2021/08/18 03:32:42;;;;;;;44.72;28.70;;;16.90;99.90;;;;;;5107946;28;20223;-68
2021/08/18 03:35:08;;;;;;;44.47;28.25;;;17.00;99.90;;;;;;5108022;28;20174;-67
2021/08/18 03:37:34;;;;;;;42.42;28.75;;;16.90;99.90;;;;;;5106544;28;20166;-67
2021/08/18 03:39:59;;;;;;;41.13;28.00;;;16.80;99.90;;;;;;5106467;28;20168;-68
2021/08/18 03:42:25;;;;;;;41.83;27.10;;;16.90;99.90;;;;;;5107514;28;20281;-67
2021/08/18 03:44:51;;;;;;;40.33;27.67;;;16.90;99.90;;;;;;5107905;28;20227;-67
2021/08/18 03:47:16;;;;;;;42.70;25.85;;;17.00;99.90;;;;;;5107775;28;20167;-68
2021/08/18 03:49:42;;;;;;;38.92;26.40;;;16.90;99.90;;;;;;5104849;28;20244;-68
2021/08/18 03:52:08;;;;;;;43.25;26.73;;;16.80;99.90;;;;;;5107620;28;20160;-68
2021/08/18 03:54:34;;;;;;;39.63;27.10;;;16.70;99.90;;;;;;5107224;28;20219;-68
2021/08/18 03:56:59;;;;;;;42.10;26.38;;;16.90;99.90;;;;;;5107314;28;20167;-67
2021/08/18 03:59:25;;;;;;;44.42;26.65;;;17.00;99.90;;;;;;5137402;27;20205;-67
2021/08/18 04:01:51;;;;;;;38.20;25.73;;;17.10;99.90;;;;;;5107392;28;20213;-67
2021/08/18 04:04:17;;;;;;;41.03;26.10;;;16.90;99.90;;;;;;5107147;28;20217;-68
2021/08/18 04:06:42;;;;;;;42.30;26.35;;;16.90;99.90;;;;;;5107087;28;20225;-67
2021/08/18 04:09:08;;;;;;;45.38;28.92;;;16.90;99.90;;;;;;5103637;28;20439;-68
2021/08/18 04:11:34;;;;;;;44.25;27.25;;;17.10;99.90;;;;;;5106642;28;20190;-67
2021/08/18 04:13:59;;;;;;;43.72;27.10;;;17.00;99.90;;;;;;5107176;28;20191;-67
2021/08/18 04:16:25;;;;;;;45.78;26.75;;;16.80;99.90;;;;;;5106967;28;20712;-67
2021/08/18 04:18:51;;;;;;;39.40;25.02;;;16.90;99.90;;;;;;5104365;28;20185;-67
2021/08/18 04:21:16;;;;;;;35.58;25.13;;;17.00;99.90;;;;;;5107113;28;20158;-67
2021/08/18 04:23:42;;;;;;;39.92;23.85;;;16.90;99.90;;;;;;5106954;28;20163;-67
2021/08/18 04:26:08;;;;;;;36.40;24.23;;;16.90;99.90;;;;;;5106833;28;20242;-67
2021/08/18 04:28:34;;;;;;;41.28;25.75;;;16.70;99.90;;;;;;5103942;28;20147;-67
2021/08/18 04:30:59;;;;;;;39.58;26.30;;;16.80;99.90;;;;;;5106863;28;20164;-68
2021/08/18 04:33:25;;;;;;;34.47;24.75;;;16.90;99.90;;;;;;5122068;28;20203;-67
2021/08/18 04:35:51;;;;;;;35.58;24.27;;;17.00;99.90;;;;;;5106609;28;20629;-67
2021/08/18 04:38:16;;;;;;;32.63;24.63;;;16.80;99.90;;;;;;5102987;28;20159;-68
2021/08/18 04:40:42;;;;;;;38.80;23.70;;;16.90;99.90;;;;;;5106033;28;20249;-67
2021/08/18 04:43:12;;;;;;;36.28;24.20;;;16.80;99.90;;;;;;5106351;28;20171;-67
2021/08/18 04:45:38;;;;;;;35.60;23.83;;;16.70;99.90;;;;;;5106498;28;20219;-68
2021/08/18 04:48:04;;;;;;;35.30;23.90;;;16.80;99.90;;;;;;5103984;28;20225;-67
2021/08/18 04:50:30;;;;;;;36.72;24.70;;;16.80;99.90;;;;;;5106050;28;20175;-67
2021/08/18 04:52:55;;;;;;;36.40;23.92;;;17.10;99.90;;;;;;5106507;28;20191;-67
2021/08/18 04:55:22;;;;;;;42.72;23.50;;;17.20;99.90;;;;;;5106271;28;20172;-67
2021/08/18 04:57:47;;;;;;;35.85;23.48;;;17.10;99.90;;;;;;5136547;27;20557;-67
2021/08/18 05:00:14;;;;;;;33.08;23.02;;;17.00;99.90;;;;;;5121747;28;20215;-67
2021/08/18 05:02:40;;;;;;;36.10;21.48;;;17.10;99.90;;;;;;5106220;28;20159;-67
2021/08/18 05:05:06;;;;;;;36.03;22.20;;;17.30;99.90;;;;;;5106179;28;20156;-67
2021/08/18 05:07:32;;;;;;;35.53;22.52;;;17.20;99.90;;;;;;5105162;28;20211;-67
2021/08/18 05:09:58;;;;;;;44.53;23.50;;;17.30;99.90;;;;;;5104413;28;20167;-67
2021/08/18 05:12:24;;;;;;;35.38;23.08;;;17.20;99.90;;;;;;5105949;28;20159;-68
2021/08/18 05:14:49;;;;;;;30.90;21.50;;;17.10;99.90;;;;;;5106198;28;20191;-67
2021/08/18 05:17:15;;;;;;;36.40;21.23;;;17.10;99.90;;;;;;5106093;28;20163;-67
2021/08/18 05:19:41;;;;;;;34.10;21.60;;;17.10;99.90;;;;;;5103105;28;20507;-68
2021/08/18 05:22:06;;;;;;;33.42;21.13;;;17.20;99.90;;;;;;5106165;28;20163;-67
2021/08/18 05:24:32;;;;;;;34.30;20.38;;;17.10;99.90;;;;;;5105585;28;20172;-67
2021/08/18 05:26:59;;;;;;;35.63;21.88;;;17.10;99.90;;;;;;5121102;28;20269;-68
2021/08/18 05:29:24;;;;;;;31.63;21.10;;;17.10;99.90;;;;;;5135481;27;20176;-67
2021/08/18 05:31:50;;;;;;;32.63;20.13;;;17.00;99.90;;;;;;5105905;28;20218;-67
2021/08/18 05:34:16;;;;;;;32.67;21.30;;;17.10;99.90;;;;;;5121322;28;20552;-67
2021/08/18 05:36:41;;;;;;;29.88;19.80;;;17.10;99.90;;;;;;5105985;28;20183;-68
2021/08/18 05:39:07;;;;;;;32.28;18.77;;;17.00;99.90;;;;;;5102855;28;20221;-67
2021/08/18 05:41:33;;;;;;;30.10;19.33;;;17.10;99.90;;;;;;5105581;28;20175;-68
2021/08/18 05:43:59;;;;;;;32.42;18.52;;;17.10;99.90;;;;;;5106305;28;20255;-68
2021/08/18 05:46:25;;;;;;;26.98;18.70;;;17.10;99.90;;;;;;5109754;28;20167;-67
2021/08/18 05:48:50;;;;;;;26.77;18.70;;;17.10;99.90;;;;;;5140251;27;20179;-66
2021/08/18 05:51:16;;;;;;;28.58;18.95;;;17.10;99.90;;;;;;5109965;28;20173;-67
2021/08/18 05:53:42;;;;;;;40.20;20.00;;;17.30;99.90;;;;;;5109585;28;20183;-67
2021/08/18 05:56:07;;;;;;;27.85;18.77;;;17.20;99.90;;;;;;5109754;28;20159;-68
2021/08/18 05:58:33;;;;;;;28.05;19.95;;;17.20;99.90;;;;;;5106953;28;20178;-67
2021/08/18 06:00:58;;;;;;;32.13;19.75;;;17.20;99.90;;;;;;5109597;28;20174;-67
2021/08/18 06:03:24;;;;;;;28.67;19.27;;;17.40;99.90;;;;;;5109487;28;20160;-67
2021/08/18 06:05:49;;;;;;;27.30;19.23;;;17.40;99.90;;;;;;5109731;28;20172;-67
2021/08/18 06:08:15;;;;;;;24.10;18.30;;;17.40;99.90;;;;;;5106798;28;20226;-67
2021/08/18 06:10:41;;;;;;;30.98;19.13;;;17.30;99.90;;;;;;5109157;28;20182;-67
2021/08/18 06:13:06;;;;;;;25.38;19.35;;;17.50;99.90;;;;;;5109009;28;20242;-67
2021/08/18 06:15:32;;;;;;;27.35;18.65;;;17.60;99.90;;;;;;5109614;28;20163;-68
2021/08/18 06:17:58;;;;;;;25.58;18.92;;;17.50;99.90;;;;;;5106947;28;20672;-67
2021/08/18 06:20:25;;;;;;;26.88;19.33;;;17.50;99.90;;;;;;5108837;28;20174;-67
2021/08/18 06:22:51;;;;;;;25.38;18.58;;;17.60;99.90;;;;;;5109499;28;20659;-68
2021/08/18 06:25:17;;;;;;;22.65;17.67;;;17.50;99.90;;;;;;5109389;28;20181;-68
2021/08/18 06:27:43;;;;;;;29.60;18.17;;;17.50;99.90;;;;;;5139637;27;20164;-68
2021/08/18 06:30:10;;;;;;;22.02;16.90;;;17.50;99.90;;;;;;5108510;28;20163;-67
2021/08/18 06:32:36;;;;;;;20.30;15.75;;;17.50;99.90;;;;;;5141761;27;20220;-67
2021/08/18 06:35:02;;;;;;;21.38;16.75;;;17.60;99.90;;;;;;5109079;28;20167;-68
2021/08/18 06:37:28;;;;;;;21.30;15.63;;;17.60;99.90;;;;;;5108528;28;20171;-67
2021/08/18 06:39:53;;;;;;;20.25;16.23;;;17.70;99.90;;;;;;5139514;27;20168;-67
2021/08/18 06:42:19;;;;;;;24.23;16.25;;;17.80;99.90;;;;;;5108366;28;20168;-67
2021/08/18 06:44:48;;;;;;;20.02;15.77;;;17.80;99.90;;;;;;5108754;28;20206;-67
2021/08/18 06:47:14;;;;;;;22.50;15.77;;;18.00;99.90;;;;;;5109112;28;20193;-68
2021/08/18 06:49:40;;;;;;;19.23;14.40;;;17.90;99.90;;;;;;5106014;28;20176;-67
2021/08/18 06:52:06;;;;;;;23.73;14.73;;;17.80;99.90;;;;;;5108858;28;20167;-67
2021/08/18 06:54:31;;;;;;;24.27;15.15;;;17.80;99.90;;;;;;5124313;28;20202;-67
2021/08/18 06:56:57;;;;;;;19.23;15.00;;;18.00;99.90;;;;;;5107108;28;20159;-67
2021/08/18 06:59:23;;;;;;;20.15;14.07;;;17.90;99.90;;;;;;5105778;28;20213;-67
2021/08/18 07:01:49;;;;;;;24.73;14.07;;;17.90;99.90;;;;;;5108617;28;20163;-67
2021/08/18 07:04:15;;;;;;;21.13;14.73;;;18.00;99.90;;;;;;5124316;28;20174;-67
2021/08/18 07:06:40;;;;;;;14.75;13.13;;;17.90;99.90;;;;;;5108267;28;20194;-67
2021/08/18 07:09:06;;;;;;;16.63;13.88;;;18.00;99.90;;;;;;5105371;28;20214;-67
2021/08/18 07:11:32;;;;;;;14.18;12.75;;;17.90;99.90;;;;;;5107995;28;20172;-67
2021/08/18 07:14:00;;;;;;;20.58;14.30;;;18.00;99.90;;;;;;5108366;28;20219;-67
2021/08/18 07:16:29;;;;;;;21.73;14.13;;;17.90;99.90;;;;;;5107928;28;20163;-67
2021/08/18 07:18:56;;;;;;;16.77;13.93;;;18.00;99.90;;;;;;5105443;28;20171;-67
2021/08/18 07:21:22;;;;;;;18.38;14.75;;;18.00;99.90;;;;;;5108414;28;20152;-67
2021/08/18 07:23:49;;;;;;;15.25;13.45;;;18.00;99.90;;;;;;5108213;28;20170;-67
2021/08/18 07:26:16;;;;;;;17.52;13.68;;;18.20;99.90;;;;;;5107589;28;20672;-67
2021/08/18 07:28:42;;;;;;;16.73;13.80;;;18.10;99.90;;;;;;5138208;27;20217;-67
2021/08/18 07:31:08;;;;;;;16.52;13.65;;;18.30;99.90;;;;;;5107962;28;20253;-67
2021/08/18 07:33:34;;;;;;;16.58;14.88;;;18.30;99.90;;;;;;5107810;28;20194;-67
2021/08/18 07:36:00;;;;;;;17.75;14.38;;;18.60;99.90;;;;;;5107889;28;20151;-67
2021/08/18 07:38:25;;;;;;;17.50;15.55;;;18.40;99.90;;;;;;5105023;28;20203;-67
2021/08/18 07:40:51;;;;;;;17.45;15.65;;;18.40;99.90;;;;;;5107753;28;20198;-68
2021/08/18 07:43:17;;;;;;;22.38;15.73;;;18.40;99.90;;;;;;5107421;28;20667;-67
2021/08/18 07:45:42;;;;;;;18.77;15.90;;;18.20;99.90;;;;;;5107558;28;20723;-67
2021/08/18 07:48:08;;;;;;;18.60;15.80;;;18.40;99.90;;;;;;5104927;28;20159;-67
2021/08/18 07:50:35;;;;;;;17.42;15.45;;;18.40;99.90;;;;;;5107250;28;20312;-67
2021/08/18 07:53:00;;;;;;;19.40;15.80;;;18.40;99.90;;;;;;5107447;28;20280;-67
2021/08/18 07:55:26;;;;;;;19.90;16.52;;;18.40;99.90;;;;;;5107118;28;20219;-68
2021/08/18 07:57:52;;;;;;;22.27;16.63;;;18.50;99.90;;;;;;5103925;28;20242;-68
2021/08/18 08:00:18;;;;;;;25.10;17.23;;;18.80;99.90;;;;;;5122339;28;20163;-67
2021/08/18 08:02:44;;;;;;;26.92;18.35;;;19.10;99.90;;;;;;5106684;28;20151;-68
2021/08/18 08:05:11;;;;;;;23.70;17.13;;;19.00;99.90;;;;;;5106477;28;20160;-67
2021/08/18 08:07:38;;;;;;;24.75;19.08;;;19.00;99.90;;;;;;5137571;27;20211;-68
2021/08/18 08:10:06;;;;;;;25.15;16.55;;;19.00;99.90;;;;;;5105820;28;20167;-67
2021/08/18 08:12:32;;;;;;;24.33;16.50;;;18.80;99.90;;;;;;5139039;27;20182;-67
2021/08/18 08:14:58;;;;;;;19.20;16.23;;;18.80;99.90;;;;;;5106819;28;20732;-67
2021/08/18 08:17:24;;;;;;;19.88;14.85;;;18.70;99.90;;;;;;5122058;28;20190;-67
2021/08/18 08:19:49;;;;;;;22.02;14.05;;;18.80;99.90;;;;;;5119932;28;20163;-67
2021/08/18 08:22:15;;;;;;;15.43;13.80;;;18.90;99.90;;;;;;5122350;28;20197;-67
2021/08/18 08:24:41;;;;;;;15.02;12.23;;;18.90;99.90;;;;;;5106377;28;20164;-67
2021/08/18 08:27:06;;;;;;;20.65;12.68;;;19.00;99.90;;;;;;5121998;28;20183;-67
2021/08/18 08:29:32;;;;;;;18.75;12.73;;;19.00;99.90;;;;;;5103788;28;20254;-67
2021/08/18 08:31:58;;;;;;;15.75;11.73;;;18.90;99.90;;;;;;5106617;28;20162;-67
2021/08/18 08:34:23;;;;;;;21.70;15.95;;;19.10;99.90;;;;;;5106283;28;20191;-67
2021/08/18 08:36:49;;;;;;;16.38;11.10;;;19.20;99.90;;;;;;5139724;27;20156;-67
2021/08/18 08:39:15;;;;;;;15.52;11.15;;;18.90;99.90;;;;;;5103304;28;20196;-67
2021/08/18 08:41:43;;;;;;;16.58;12.65;;;19.00;99.90;;;;;;5105553;28;20223;-67
2021/08/18 08:44:17;;;;;;;19.33;12.10;;;19.10;99.90;;;;;;5105864;28;20177;-67
2021/08/18 08:46:45;;;;;;;16.65;12.38;;;19.30;99.90;;;;;;5105235;28;20155;-67
2021/08/18 08:49:11;;;;;;;15.20;13.20;;;19.40;99.90;;;;;;5103305;28;20226;-67
2021/08/18 08:51:38;;;;;;;18.23;13.52;;;19.60;99.90;;;;;;5106188;28;20167;-68
2021/08/18 08:54:03;;;;;;;17.92;14.88;;;19.80;99.90;;;;;;5138502;27;20197;-69
2021/08/18 08:56:29;;;;;;;26.98;14.07;;;19.90;99.90;;;;;;5138275;27;20226;-69
2021/08/18 08:58:55;;;;;;;21.10;14.13;;;19.60;99.90;;;;;;5102159;28;20180;-67
2021/08/18 09:01:20;;;;;;;19.42;14.18;;;19.50;99.90;;;;;;5105992;28;20151;-67
2021/08/18 09:03:46;;;;;;;18.80;14.18;;;19.70;99.90;;;;;;5105574;28;20155;-67
2021/08/18 09:06:19;;;;;;;16.25;14.27;;;19.80;99.90;;;;;;5106042;28;20504;-67
2021/08/18 09:08:52;;;;;;;16.40;14.52;;;20.00;99.90;;;;;;5103078;28;20256;-68
2021/08/18 09:11:19;;;;;;;17.80;14.18;;;19.90;99.90;;;;;;5105674;28;20262;-67
2021/08/18 09:13:51;;;;;;;16.23;13.68;;;19.90;99.90;;;;;;5105631;28;20191;-68
2021/08/18 09:16:19;;;;;;;13.38;12.00;;;19.80;99.90;;;;;;5105703;28;20238;-68
2021/08/18 09:18:53;;;;;;;15.10;11.80;;;19.50;99.90;;;;;;5102327;28;20152;-68
2021/08/18 09:21:40;;;;;;;13.13;11.70;;;19.70;99.90;;;;;;5105703;28;20234;-68
2021/08/18 09:24:11;;;;;;;14.02;10.55;;;20.00;99.90;;;;;;5105741;28;20170;-68
2021/08/18 09:26:42;;;;;;;12.13;10.25;;;19.90;99.90;;;;;;5105070;28;20261;-68
2021/08/18 09:29:09;;;;;;;13.32;9.70;;;20.20;99.90;;;;;;5103010;28;20159;-68
2021/08/18 09:31:35;;;;;;;9.25;8.40;;;20.40;99.90;;;;;;5121254;28;20221;-68
2021/08/18 09:34:01;;;;;;;8.90;8.02;;;20.70;99.90;;;;;;5105572;28;20282;-68
2021/08/18 09:36:29;;;;;;;13.68;8.50;;;20.60;99.90;;;;;;5105457;28;20160;-68
2021/08/18 09:39:21;;;;;;;15.65;9.25;;;20.80;99.90;;;;;;5103281;28;20545;-68
2021/08/18 09:41:48;;;;;;;9.35;8.43;;;21.00;99.90;;;;;;5105183;28;20193;-68
2021/08/18 09:44:13;;;;;;;9.63;8.63;;;20.70;99.90;;;;;;5105792;28;20156;-68
2021/08/18 09:46:39;;;;;;;13.55;8.18;;;20.50;99.90;;;;;;5105446;28;20227;-68
2021/08/18 09:49:09;;;;;;;11.38;8.50;;;20.40;99.90;;;;;;5101760;28;20446;-68
2021/08/18 09:51:35;;;;;;;13.02;8.23;;;20.30;99.90;;;;;;5105248;28;20191;-68
2021/08/18 09:54:15;;;;;;;10.85;8.40;;;20.20;99.90;;;;;;5105459;28;20209;-68
2021/08/18 09:56:45;;;;;;;8.75;7.85;;;20.40;99.90;;;;;;5104958;28;20167;-68
2021/08/18 09:59:11;;;;;;;13.70;9.63;;;20.40;99.90;;;;;;5102553;28;20432;-68
2021/08/18 10:01:38;;;;;;;11.75;10.20;;;20.20;99.90;;;;;;5105523;28;20624;-69
2021/08/18 10:04:05;;;;;;;13.25;11.73;;;20.30;99.90;;;;;;5105143;28;20172;-68
2021/08/18 10:06:31;;;;;;;15.57;12.20;;;20.40;99.90;;;;;;5105378;28;20178;-68
2021/08/18 10:08:57;;;;;;;13.13;11.57;;;20.60;99.90;;;;;;5102883;28;20210;-68
2021/08/18 10:11:25;;;;;;;12.57;10.50;;;20.40;99.90;;;;;;5104637;28;20175;-69
2021/08/18 10:13:52;;;;;;;13.43;12.00;;;20.30;99.90;;;;;;5105092;28;20575;-68
2021/08/18 10:16:18;;;;;;;14.55;13.15;;;20.10;99.90;;;;;;5105260;28;20167;-68
2021/08/18 10:18:46;;;;;;;16.63;12.82;;;20.00;99.90;;;;;;5102608;28;20159;-68
2021/08/18 10:21:15;;;;;;;13.75;12.45;;;19.80;99.90;;;;;;5104923;28;20173;-68
2021/08/18 10:24:00;;;;;;;15.40;12.75;;;19.90;99.90;;;;;;5105164;28;20175;-68
2021/08/18 10:26:35;;;;;;;14.10;12.60;;;19.80;99.90;;;;;;5120523;28;20175;-68
2021/08/18 10:29:01;;;;;;;13.40;11.93;;;19.70;99.90;;;;;;5102753;28;20192;-68
2021/08/18 10:31:45;;;;;;;17.52;10.90;;;20.00;99.90;;;;;;5107622;28;20185;-68
2021/08/18 10:34:34;;;;;;;10.93;9.43;;;20.00;99.90;;;;;;5108623;28;20197;-68
2021/08/18 10:37:13;;;;;;;10.57;9.57;;;20.30;99.90;;;;;;5109090;28;20215;-69
2021/08/18 10:39:50;;;;;;;11.10;10.00;;;20.30;99.90;;;;;;5105905;28;20175;-68
2021/08/18 10:42:18;;;;;;;12.48;9.75;;;20.10;99.90;;;;;;5108395;28;20190;-68
2021/08/18 10:44:52;;;;;;;10.23;9.02;;;20.10;99.90;;;;;;5108852;28;20170;-68
2021/08/18 10:47:34;;;;;;;10.85;9.77;;;20.40;99.90;;;;;;5124399;28;20518;-68
2021/08/18 10:50:11;;;;;;;12.35;9.70;;;20.40;99.90;;;;;;5107222;28;20167;-68
2021/08/18 10:52:37;;;;;;;9.98;8.90;;;20.30;99.90;;;;;;5108301;28;20167;-68
2021/08/18 10:55:16;;;;;;;9.73;8.77;;;20.50;99.90;;;;;;5108420;28;20199;-68
2021/08/18 10:57:55;;;;;;;9.82;8.52;;;20.70;99.90;;;;;;5106197;28;20170;-68
2021/08/18 11:00:38;;;;;;;9.70;7.93;;;20.50;99.90;;;;;;5108372;28;20163;-68
2021/08/18 11:03:13;;;;;;;9.27;8.32;;;20.40;99.90;;;;;;5108324;28;20189;-68
2021/08/18 11:05:39;;;;;;;11.10;9.20;;;20.80;99.90;;;;;;5107953;28;20182;-68
2021/08/18 11:08:36;;;;;;;9.85;8.25;;;21.20;99.90;;;;;;5121154;28;20345;-68
2021/08/18 11:11:01;;;;;;;8.48;7.63;;;21.10;99.90;;;;;;5108166;28;20171;-68
2021/08/18 11:14:05;;;;;;;14.27;8.27;;;21.10;99.90;;;;;;5107557;28;20191;-68
2021/08/18 11:16:32;;;;;;;15.73;7.22;;;21.10;99.90;;;;;;5108241;28;20152;-68
2021/08/18 11:18:59;;;;;;;7.15;6.47;;;21.00;99.90;;;;;;5105667;28;20522;-68
2021/08/18 11:21:31;;;;;;;7.47;6.78;;;20.90;99.90;;;;;;5123413;28;20164;-68
2021/08/18 11:24:04;;;;;;;10.85;8.07;;;20.80;99.90;;;;;;5108080;28;20190;-68
2021/08/18 11:26:33;;;;;;;8.85;8.05;;;20.50;99.90;;;;;;5107522;28;20190;-68
2021/08/18 11:29:29;;;;;;;9.00;8.07;;;20.40;99.90;;;;;;5105497;28;20162;-68
2021/08/18 11:31:55;;;;;;;11.27;7.85;;;21.00;99.90;;;;;;5106411;28;20194;-68
2021/08/18 11:34:28;;;;;;;8.52;7.75;;;20.90;99.90;;;;;;5107544;28;20222;-68
2021/08/18 11:37:06;;;;;;;10.27;8.50;;;21.10;99.90;;;;;;5107508;28;20620;-68
2021/08/18 11:39:37;;;;;;;14.18;8.73;;;21.20;99.90;;;;;;5104732;28;20163;-68
2021/08/18 11:42:14;;;;;;;8.02;7.28;;;21.30;99.90;;;;;;5122284;28;20174;-68
2021/08/18 11:44:43;;;;;;;11.38;7.20;;;21.10;99.90;;;;;;5107420;28;20159;-68
2021/08/18 11:47:17;;;;;;;7.85;6.78;;;21.00;99.90;;;;;;5107452;28;20237;-68
2021/08/18 11:49:46;;;;;;;9.07;7.13;;;21.20;99.90;;;;;;5104760;28;20172;-68
2021/08/18 11:52:22;;;;;;;7.72;6.00;;;21.30;99.90;;;;;;5107509;28;20259;-68
2021/08/18 11:55:07;;;;;;;7.60;6.20;;;21.30;99.90;;;;;;5107441;28;20269;-68
2021/08/18 11:57:33;;;;;;;9.15;5.15;;;21.30;99.90;;;;;;5105306;28;20167;-68
2021/08/18 12:00:04;;;;;;;7.65;6.85;;;21.30;99.90;;;;;;5105840;28;20177;-68
2021/08/18 12:02:32;;;;;;;8.60;6.03;;;21.30;99.90;;;;;;5107341;28;20223;-68
2021/08/18 12:05:00;;;;;;;9.05;6.38;;;21.20;99.90;;;;;;5107349;28;20258;-68
2021/08/18 12:07:31;;;;;;;9.75;6.30;;;21.20;99.90;;;;;;5122503;28;20227;-68
2021/08/18 12:10:18;;;;;;;7.03;6.35;;;21.20;99.90;;;;;;5105542;28;20168;-68
2021/08/18 12:12:43;;;;;;;5.95;5.28;;;21.00;99.90;;;;;;5106678;28;20190;-68
2021/08/18 12:15:12;;;;;;;7.43;5.85;;;21.00;99.90;;;;;;5105906;28;20668;-68
2021/08/18 12:17:39;;;;;;;6.00;5.50;;;21.00;99.90;;;;;;5105228;28;20254;-68
2021/08/18 12:20:24;;;;;;;6.30;5.80;;;21.10;99.90;;;;;;5121686;28;20252;-68
2021/08/18 12:22:50;;;;;;;6.97;6.38;;;21.20;99.90;;;;;;5106337;28;20216;-68
2021/08/18 12:25:17;;;;;;;9.23;6.03;;;21.00;99.90;;;;;;5106365;28;20163;-68
2021/08/18 12:27:43;;;;;;;6.93;6.38;;;21.00;99.90;;;;;;5104313;28;20159;-69
2021/08/18 12:30:13;;;;;;;6.65;6.15;;;20.80;99.90;;;;;;5106037;28;20742;-68
2021/08/18 12:32:39;;;;;;;9.23;6.13;;;20.70;99.90;;;;;;5106545;28;20621;-68